Amanda Park, Washington
Current Conditions -  °F | °C
As of 8:12 PM on Sunday 23 Nov 2014 (Local Time) from KHQM Reporting Station
Haze Haze  
Wind Chill: 43°   Ceiling: 2800
Heat Index: 43°   Visibility: 5mi
Dew Point: 43°   Wind: 0mph
Humidity: 100%   Direction: NA
Pressure: 30.29"   Gusts: NA
Location:  47.46°N, 123.89°W
Report Text: KHQM 240412Z AUTO 00000KT 5SM BR BKN028 06/06 A3029 RMK AO2 T00610061
Loading
Personal Weather Stations






























Interactive Weather Map New forecast layout! Learn more

10-Day Weather Forecast

Advertisements
Track Severe Weather on mobile